Time;durP1;ratioP1;P1;durP2;ratioP2;P2;SDS_P1;SDS_P2;PMS_P1;PMS_P2;Temp;Humidity;BMP_temperature;BMP_pressure;BME280_temperature;BME280_humidity;BME280_pressure;Samples;Min_cycle;Max_cycle;Signal;HPM_P1;HPM_P2
2022/09/13 00:00:58;;;;;;;2.40;2.30;;;;;;;19.79;59.27;97897.06;5054497;28;20208;-52
2022/09/13 00:03:24;;;;;;;1.98;1.88;;;;;;;19.88;58.41;97903.91;5054418;28;20658;-52
2022/09/13 00:05:49;;;;;;;2.63;2.42;;;;;;;19.85;58.67;97906.88;5054506;28;20200;-52
2022/09/13 00:08:15;;;;;;;2.83;2.63;;;;;;;19.76;59.24;97900.06;5054352;28;20227;-52
2022/09/13 00:10:42;;;;;;;2.40;2.30;;;;;;;19.77;58.66;97904.31;5054521;28;20181;-52
2022/09/13 00:13:10;;;;;;;2.70;2.50;;;;;;;19.90;57.77;97896.66;5054300;28;20181;-52
2022/09/13 00:15:36;;;;;;;2.55;2.05;;;;;;;19.77;58.10;97884.09;5054320;28;20256;-52
2022/09/13 00:18:02;;;;;;;2.00;1.90;;;;;;;19.92;57.53;97902.53;5054168;28;20180;-52
2022/09/13 00:20:28;;;;;;;3.67;2.10;;;;;;;19.83;57.91;97903.59;5054376;28;20200;-52
2022/09/13 00:22:53;;;;;;;2.03;1.92;;;;;;;19.80;56.77;97883.75;5054144;28;20173;-53
2022/09/13 00:25:19;;;;;;;2.22;2.03;;;;;;;19.90;56.76;97899.28;5053028;28;20169;-52
2022/09/13 00:27:44;;;;;;;2.90;2.17;;;;;;;19.90;56.66;97891.41;5054002;28;20254;-52
2022/09/13 00:30:11;;;;;;;2.45;2.35;;;;;;;19.62;57.50;97890.28;5053991;28;20208;-52
2022/09/13 00:32:37;;;;;;;2.00;1.90;;;;;;;19.69;57.09;97893.88;5053934;28;20226;-52
2022/09/13 00:35:04;;;;;;;1.85;1.77;;;;;;;19.71;57.08;97892.66;5054136;28;20178;-52
2022/09/13 00:37:32;;;;;;;2.38;2.17;;;;;;;19.69;57.43;97891.25;5053848;28;20184;-52
2022/09/13 00:39:57;;;;;;;2.13;2.00;;;;;;;19.70;57.29;97892.88;5053915;28;20181;-52
2022/09/13 00:42:28;;;;;;;2.10;2.00;;;;;;;19.49;58.09;97879.53;5054264;28;20269;-52
2022/09/13 00:45:04;;;;;;;2.00;1.90;;;;;;;19.64;57.48;97893.56;5053695;28;20651;-52
2022/09/13 00:47:52;;;;;;;2.10;2.00;;;;;;;19.71;56.93;97889.25;5053525;28;20626;-52
2022/09/13 00:50:42;;;;;;;2.33;1.65;;;;;;;19.67;57.29;97899.28;5053935;28;20674;-52
2022/09/13 00:53:18;;;;;;;1.90;1.80;;;;;;;19.45;57.47;97860.72;5053826;28;20215;-52
2022/09/13 00:56:08;;;;;;;2.17;2.08;;;;;;;19.60;57.94;97890.47;5052255;28;20691;-52
2022/09/13 00:58:40;;;;;;;2.25;2.15;;;;;;;19.67;57.44;97885.34;5053570;28;20204;-53
2022/09/13 01:01:09;;;;;;;1.58;1.58;;;;;;;19.63;57.34;97881.41;5053491;28;20172;-52
2022/09/13 01:03:35;;;;;;;2.00;1.90;;;;;;;19.49;58.04;97879.53;5053376;28;20215;-52
2022/09/13 01:06:07;;;;;;;3.38;2.30;;;;;;;19.54;57.82;97871.97;5053699;28;20578;-52
2022/09/13 01:08:34;;;;;;;2.28;2.17;;;;;;;19.55;58.58;97874.44;5053244;28;20298;-53
2022/09/13 01:11:03;;;;;;;2.00;1.90;;;;;;;19.47;58.64;97878.91;5053297;28;20173;-52
2022/09/13 01:13:31;;;;;;;2.13;2.03;;;;;;;19.42;58.00;97884.66;5053529;28;20398;-52
2022/09/13 01:15:58;;;;;;;2.78;2.08;;;;;;;19.47;57.24;97887.59;5053227;28;20260;-52
2022/09/13 01:18:24;;;;;;;1.73;1.63;;;;;;;19.52;57.27;97884.47;5053177;28;20173;-52
2022/09/13 01:21:08;;;;;;;3.03;1.92;;;;;;;19.49;56.22;97884.78;5053346;28;20540;-52
2022/09/13 01:24:21;;;;;;;1.88;1.77;;;;;;;19.52;56.02;97877.38;5052991;28;20173;-52
2022/09/13 01:27:13;;;;;;;2.75;1.80;;;;;;;19.55;56.06;97878.84;5050925;28;20196;-53
2022/09/13 01:29:57;;;;;;;1.98;1.88;;;;;;;19.59;56.03;97883.56;5053123;28;20220;-52
2022/09/13 01:32:44;;;;;;;2.13;1.92;;;;;;;19.49;56.98;97874.28;5052754;28;20173;-52
2022/09/13 01:35:15;;;;;;;1.95;1.85;;;;;;;19.55;55.91;97886.72;5052574;28;20169;-52
2022/09/13 01:37:57;;;;;;;2.17;1.73;;;;;;;19.55;56.11;97881.47;5053088;28;20172;-52
2022/09/13 01:40:45;;;;;;;2.22;1.90;;;;;;;19.58;55.80;97878.50;5052687;28;20264;-52
2022/09/13 01:43:52;;;;;;;2.50;2.30;;;;;;;19.43;58.12;97880.22;5053073;28;20166;-52
2022/09/13 01:46:26;;;;;;;1.98;1.80;;;;;;;19.46;56.38;97861.53;5050554;28;20180;-52
2022/09/13 01:48:56;;;;;;;2.22;1.98;;;;;;;19.38;57.41;97872.88;5052342;28;20376;-52
2022/09/13 01:51:31;;;;;;;2.42;2.25;;;;;;;19.42;57.74;97873.34;5052622;28;20177;-52
2022/09/13 01:54:20;;;;;;;2.90;2.70;;;;;;;19.39;58.30;97874.53;5052773;28;20164;-53
2022/09/13 01:57:04;;;;;;;2.78;2.50;;;;;;;19.33;58.21;97863.88;5052270;28;20193;-53
2022/09/13 01:59:46;;;;;;;2.53;2.33;;;;;;;19.43;57.41;97874.97;5052668;28;20212;-52
2022/09/13 02:02:14;;;;;;;2.38;2.17;;;;;;;19.48;57.25;97870.03;5052422;28;20171;-53
2022/09/13 02:04:45;;;;;;;2.10;2.00;;;;;;;19.53;57.24;97875.59;5052163;28;20684;-52
2022/09/13 02:07:35;;;;;;;1.92;1.83;;;;;;;19.44;57.68;97876.63;5052245;28;20193;-52
2022/09/13 02:10:08;;;;;;;2.00;1.90;;;;;;;19.39;57.81;97876.31;5052533;28;20164;-53
2022/09/13 02:12:38;;;;;;;1.98;1.88;;;;;;;19.49;56.85;97871.66;5052202;28;20200;-53
2022/09/13 02:15:15;;;;;;;2.13;2.03;;;;;;;19.48;57.21;97867.41;5052404;28;20181;-52
2022/09/13 02:17:46;;;;;;;1.90;1.80;;;;;;;19.49;56.14;97856.75;5052476;28;20239;-52
2022/09/13 02:20:18;;;;;;;2.15;2.05;;;;;;;19.50;56.29;97866.25;5052107;28;20244;-52
2022/09/13 02:22:51;;;;;;;2.22;2.13;;;;;;;19.48;56.49;97865.59;5052468;28;20196;-52
2022/09/13 02:25:20;;;;;;;2.00;1.90;;;;;;;19.44;56.73;97860.88;5052043;28;20162;-52
2022/09/13 02:27:50;;;;;;;2.20;2.00;;;;;;;19.41;57.25;97876.97;5052288;28;20646;-53
2022/09/13 02:30:16;;;;;;;1.90;1.80;;;;;;;19.32;57.46;97864.88;5051937;28;20185;-53
2022/09/13 02:32:49;;;;;;;1.98;1.88;;;;;;;19.24;56.53;97838.69;5051933;28;20181;-53
2022/09/13 02:35:20;;;;;;;2.10;2.00;;;;;;;19.36;56.59;97864.34;5051808;28;20185;-53
2022/09/13 02:37:54;;;;;;;2.08;1.98;;;;;;;19.29;56.67;97862.63;5052037;28;20157;-52
2022/09/13 02:40:25;;;;;;;2.15;1.85;;;;;;;19.42;56.39;97863.66;5051891;28;20154;-53
2022/09/13 02:43:04;;;;;;;1.90;1.80;;;;;;;19.38;56.41;97865.03;5052068;28;20165;-52
2022/09/13 02:45:36;;;;;;;1.83;1.73;;;;;;;19.34;56.57;97865.50;5052045;28;20169;-52
2022/09/13 02:48:27;;;;;;;2.00;1.90;;;;;;;19.32;56.43;97857.00;5053546;28;20189;-52
2022/09/13 02:51:01;;;;;;;1.83;1.73;;;;;;;19.37;56.21;97865.19;5056168;28;20172;-52
2022/09/13 02:53:32;;;;;;;2.05;1.95;;;;;;;19.31;55.89;97860.63;5055854;28;20703;-53
2022/09/13 02:56:19;;;;;;;1.80;1.70;;;;;;;19.26;57.16;97866.41;5055865;28;20157;-52
2022/09/13 02:59:00;;;;;;;2.50;1.77;;;;;;;19.27;55.80;97868.03;5055921;28;20545;-52
2022/09/13 03:01:26;;;;;;;1.80;1.70;;;;;;;19.26;56.55;97857.69;5055711;28;20158;-52
2022/09/13 03:03:53;;;;;;;3.60;1.67;;;;;;;19.11;58.38;97868.06;5055995;28;20222;-52
2022/09/13 03:06:26;;;;;;;2.00;1.90;;;;;;;19.20;55.80;97864.44;5056255;28;20208;-53
2022/09/13 03:08:55;;;;;;;2.28;2.00;;;;;;;19.23;55.61;97869.34;5055978;28;20191;-52
2022/09/13 03:11:35;;;;;;;2.15;1.98;;;;;;;19.26;55.52;97865.56;5055478;28;20166;-52
2022/09/13 03:14:19;;;;;;;2.00;1.90;;;;;;;19.21;56.21;97870.50;5055672;28;20156;-52
2022/09/13 03:16:54;;;;;;;1.90;1.80;;;;;;;19.23;56.19;97865.94;5055792;28;20173;-52
2022/09/13 03:19:23;;;;;;;1.70;1.60;;;;;;;19.29;55.49;97879.16;5055330;28;20179;-51
2022/09/13 03:22:22;;;;;;;1.60;1.50;;;;;;;19.33;55.59;97874.38;5055643;28;20306;-52
2022/09/13 03:25:06;;;;;;;1.80;1.63;;;;;;;19.31;55.70;97871.94;5055573;28;20201;-52
2022/09/13 03:27:34;;;;;;;1.77;1.67;;;;;;;19.28;54.85;97879.31;5055744;28;20168;-52
2022/09/13 03:30:08;;;;;;;1.75;1.65;;;;;;;19.28;54.96;97877.53;5055420;28;20208;-52
2022/09/13 03:33:07;;;;;;;4.55;1.92;;;;;;;19.23;55.34;97873.78;5055364;28;20592;-53
2022/09/13 03:36:05;;;;;;;2.67;1.63;;;;;;;19.26;55.32;97874.28;5055034;28;20175;-52
2022/09/13 03:38:41;;;;;;;3.83;1.73;;;;;;;19.24;55.14;97872.81;5055362;28;20232;-52
2022/09/13 03:41:14;;;;;;;1.70;1.60;;;;;;;19.17;55.02;97877.88;5054898;28;20645;-52
2022/09/13 03:43:46;;;;;;;2.00;1.90;;;;;;;19.10;55.88;97889.22;5055091;28;20211;-52
2022/09/13 03:46:20;;;;;;;3.28;1.40;;;;;;;19.10;54.82;97878.72;5055101;28;20627;-52
2022/09/13 03:48:46;;;;;;;1.63;1.52;;;;;;;19.05;56.53;97881.88;5054712;28;20677;-52
2022/09/13 03:51:13;;;;;;;2.60;1.60;;;;;;;19.07;55.39;97879.88;5054743;28;20179;-52
2022/09/13 03:53:44;;;;;;;1.80;1.70;;;;;;;18.91;57.40;97879.97;5054956;28;20554;-52
2022/09/13 03:56:15;;;;;;;1.73;1.63;;;;;;;19.00;55.76;97889.41;5054782;28;20162;-52
2022/09/13 03:58:41;;;;;;;2.78;1.50;;;;;;;18.89;55.96;97881.13;5054570;28;20184;-52
2022/09/13 04:01:09;;;;;;;1.95;1.85;;;;;;;18.92;56.79;97880.75;5054781;28;20188;-53
2022/09/13 04:03:34;;;;;;;1.88;1.77;;;;;;;18.88;55.79;97890.78;5054524;28;20185;-52
2022/09/13 04:06:00;;;;;;;1.27;1.27;;;;;;;18.92;56.03;97886.00;5054563;28;20196;-52
2022/09/13 04:08:25;;;;;;;2.03;1.80;;;;;;;18.89;56.75;97881.91;5054629;28;20212;-52
2022/09/13 04:10:51;;;;;;;1.90;1.80;;;;;;;18.79;57.68;97885.72;5053243;28;20188;-52
2022/09/13 04:13:16;;;;;;;2.10;1.95;;;;;;;18.75;58.32;97885.25;5054360;28;20177;-52
2022/09/13 04:15:42;;;;;;;1.90;1.80;;;;;;;18.77;59.64;97882.47;5054629;28;20173;-52
2022/09/13 04:18:08;;;;;;;2.17;1.80;;;;;;;18.65;60.55;97881.19;5054335;28;20634;-52
2022/09/13 04:20:34;;;;;;;2.65;2.10;;;;;;;18.60;59.50;97870.41;5054572;28;20181;-52
2022/09/13 04:23:00;;;;;;;4.07;2.10;;;;;;;18.67;59.60;97881.84;5054481;28;20207;-52
2022/09/13 04:25:26;;;;;;;4.07;3.22;;;;;;;18.62;59.79;97876.28;5054152;28;20639;-52
2022/09/13 04:27:55;;;;;;;2.92;2.25;;;;;;;18.77;59.09;97877.22;5054008;28;20231;-52
2022/09/13 04:30:22;;;;;;;2.50;2.30;;;;;;;18.89;59.16;97889.00;5054100;28;20185;-52
2022/09/13 04:32:48;;;;;;;2.13;2.03;;;;;;;18.75;58.91;97837.25;5054081;28;20658;-52
2022/09/13 04:35:15;;;;;;;6.47;4.95;;;;;;;19.00;58.78;97875.50;5054309;28;20177;-52
2022/09/13 04:37:41;;;;;;;3.72;3.33;;;;;;;19.08;60.08;97885.97;5053982;28;20669;-52
2022/09/13 04:40:07;;;;;;;4.80;3.42;;;;;;;19.10;60.83;97889.22;5053943;28;20183;-52
2022/09/13 04:42:34;;;;;;;3.33;2.97;;;;;;;19.15;59.86;97897.41;5054197;28;20177;-52
2022/09/13 04:44:59;;;;;;;2.50;2.40;;;;;;;19.28;59.15;97892.44;5053819;28;20673;-52
2022/09/13 04:47:24;;;;;;;2.00;1.90;;;;;;;19.06;58.91;97874.81;5053816;28;20177;-52
2022/09/13 04:49:50;;;;;;;2.88;2.05;;;;;;;18.97;59.50;97852.25;5053678;28;20205;-52
2022/09/13 04:52:15;;;;;;;2.47;2.22;;;;;;;19.15;59.22;97865.91;5053743;28;20242;-52
2022/09/13 04:54:41;;;;;;;4.05;2.45;;;;;;;19.41;58.74;97892.72;5053667;28;20646;-52
2022/09/13 04:57:06;;;;;;;1.92;1.83;;;;;;;19.44;58.39;97902.84;5053641;28;20260;-52
2022/09/13 04:59:32;;;;;;;3.10;2.08;;;;;;;19.47;58.86;97892.03;5053595;28;20247;-53
2022/09/13 05:01:57;;;;;;;2.45;1.88;;;;;;;19.48;57.86;97891.84;5053798;28;20185;-53
2022/09/13 05:04:22;;;;;;;2.03;1.90;;;;;;;19.65;57.44;97892.56;5053533;28;20177;-53
2022/09/13 05:06:48;;;;;;;3.05;1.58;;;;;;;19.69;56.83;97901.75;5053539;28;20193;-52
2022/09/13 05:09:14;;;;;;;2.17;1.90;;;;;;;19.73;57.05;97905.63;5053290;28;20619;-53
2022/09/13 05:11:40;;;;;;;1.92;1.80;;;;;;;19.77;56.94;97910.34;5052959;28;20178;-53
2022/09/13 05:14:08;;;;;;;3.28;1.98;;;;;;;19.81;56.81;97903.78;5053516;28;20192;-52
2022/09/13 05:16:33;;;;;;;2.13;2.03;;;;;;;19.77;57.99;97905.09;5053214;28;20177;-52
2022/09/13 05:18:59;;;;;;;2.15;2.05;;;;;;;19.84;57.71;97918.38;5053448;28;20306;-53
2022/09/13 05:21:26;;;;;;;2.58;1.98;;;;;;;19.84;57.50;97900.81;5053139;28;20181;-53
2022/09/13 05:23:53;;;;;;;3.88;1.95;;;;;;;20.00;56.67;97920.88;5053345;28;20666;-53
2022/09/13 05:26:20;;;;;;;2.25;1.65;;;;;;;20.04;56.41;97916.91;5053619;28;20246;-52
2022/09/13 05:28:45;;;;;;;2.67;1.75;;;;;;;20.09;56.31;97919.84;5052925;28;20204;-52
2022/09/13 05:31:19;;;;;;;2.03;1.92;;;;;;;20.02;56.92;97909.22;5053351;28;20180;-53
2022/09/13 05:33:51;;;;;;;2.00;1.90;;;;;;;20.01;56.96;97912.84;5053108;28;20180;-52
2022/09/13 05:36:17;;;;;;;2.13;2.03;;;;;;;20.00;57.97;97905.91;5053189;28;20238;-52
2022/09/13 05:38:43;;;;;;;2.30;1.92;;;;;;;20.11;55.80;97907.38;5052775;28;20204;-52
2022/09/13 05:41:08;;;;;;;1.80;1.70;;;;;;;20.25;55.01;97912.66;5052960;28;20183;-52
2022/09/13 05:43:35;;;;;;;2.95;1.98;;;;;;;20.26;54.82;97910.84;5051476;28;20189;-53
2022/09/13 05:46:06;;;;;;;1.80;1.70;;;;;;;20.23;55.31;97905.94;5052712;28;20173;-52
2022/09/13 05:48:33;;;;;;;1.95;1.85;;;;;;;20.32;54.62;97925.88;5052688;28;20203;-52
2022/09/13 05:51:19;;;;;;;2.13;2.00;;;;;;;20.31;54.59;97911.97;5052596;28;20216;-52
2022/09/13 05:53:47;;;;;;;2.05;1.90;;;;;;;20.33;55.09;97904.69;5052547;28;20235;-52
2022/09/13 05:56:16;;;;;;;2.03;1.92;;;;;;;20.40;55.70;97910.88;5052527;28;20643;-52
2022/09/13 05:58:43;;;;;;;2.22;2.03;;;;;;;20.50;53.74;97910.63;5052730;28;20180;-53
2022/09/13 06:01:10;;;;;;;2.80;1.80;;;;;;;20.50;53.87;97903.56;5052393;28;20177;-52
2022/09/13 06:03:36;;;;;;;1.85;1.75;;;;;;;20.42;53.82;97897.56;5052357;28;20184;-52
2022/09/13 06:06:03;;;;;;;3.53;2.03;;;;;;;20.50;53.72;97907.97;5052231;28;20189;-53
2022/09/13 06:08:30;;;;;;;1.85;1.70;;;;;;;20.48;54.49;97896.84;5052113;28;20655;-52
2022/09/13 06:11:06;;;;;;;1.83;1.73;;;;;;;20.61;54.11;97912.81;5052269;28;20256;-52
2022/09/13 06:13:32;;;;;;;2.05;1.95;;;;;;;20.60;54.67;97904.13;5052161;28;20181;-52
2022/09/13 06:15:59;;;;;;;2.75;2.00;;;;;;;20.72;54.24;97907.13;5052242;28;20195;-51
2022/09/13 06:18:25;;;;;;;2.40;1.67;;;;;;;20.74;53.07;97910.41;5052221;28;20726;-51
2022/09/13 06:20:56;;;;;;;3.85;1.60;;;;;;;20.82;53.42;97899.78;5052402;28;20204;-51
2022/09/13 06:23:21;;;;;;;2.22;2.00;;;;;;;20.96;53.21;97899.81;5051277;28;20165;-51
2022/09/13 06:25:47;;;;;;;1.77;1.67;;;;;;;21.09;53.09;97904.44;5052115;28;20673;-53
2022/09/13 06:28:12;;;;;;;2.30;2.20;;;;;;;21.10;53.32;97895.53;5052167;28;20296;-53
2022/09/13 06:30:37;;;;;;;1.95;1.85;;;;;;;21.20;52.73;97917.09;5052006;28;20184;-53
2022/09/13 06:33:03;;;;;;;1.90;1.80;;;;;;;21.27;52.24;97912.78;5051994;28;20169;-53
2022/09/13 06:35:28;;;;;;;2.00;1.90;;;;;;;21.31;52.30;97911.38;5051944;28;20718;-53
2022/09/13 06:37:56;;;;;;;2.10;2.00;;;;;;;21.29;52.68;97924.75;5051898;28;20650;-53
2022/09/13 06:40:22;;;;;;;1.90;1.65;;;;;;;21.22;51.99;97936.97;5052047;28;20238;-53
2022/09/13 06:42:47;;;;;;;2.10;2.00;;;;;;;21.18;52.20;97930.47;5051918;28;20177;-53
2022/09/13 06:45:13;;;;;;;4.20;2.03;;;;;;;21.21;51.96;97929.28;5051838;28;20660;-53
2022/09/13 06:47:38;;;;;;;3.53;1.88;;;;;;;21.23;52.71;97933.38;5051751;28;20565;-53
2022/09/13 06:50:04;;;;;;;2.60;2.30;;;;;;;21.30;52.60;97928.19;5051733;28;20181;-53
2022/09/13 06:52:30;;;;;;;2.10;1.70;;;;;;;21.41;51.64;97939.06;5051755;28;20653;-53
2022/09/13 06:54:55;;;;;;;1.80;1.70;;;;;;;21.47;51.37;97932.25;5051806;28;20231;-53
2022/09/13 06:57:20;;;;;;;3.53;1.77;;;;;;;21.58;50.30;97927.31;5052127;28;20272;-53
2022/09/13 06:59:46;;;;;;;2.28;1.60;;;;;;;21.71;49.33;97942.47;5051763;28;20222;-53
2022/09/13 07:02:13;;;;;;;1.80;1.70;;;;;;;21.69;48.69;97950.56;5051948;28;20169;-53
2022/09/13 07:04:39;;;;;;;1.70;1.45;;;;;;;21.58;49.06;97947.56;5051576;28;20222;-53
2022/09/13 07:07:04;;;;;;;3.55;1.63;;;;;;;21.52;49.13;97937.78;5051646;28;20201;-53
2022/09/13 07:09:30;;;;;;;1.55;1.45;;;;;;;21.57;49.14;97948.56;5052037;28;20229;-53
2022/09/13 07:11:56;;;;;;;1.73;1.63;;;;;;;21.61;49.67;97941.94;5052207;28;20227;-53
2022/09/13 07:14:23;;;;;;;4.70;1.88;;;;;;;21.63;49.90;97950.47;5051581;28;20196;-53
2022/09/13 07:16:50;;;;;;;1.45;1.40;;;;;;;21.63;49.46;97947.81;5051574;28;20192;-53
2022/09/13 07:19:21;;;;;;;1.60;1.50;;;;;;;21.66;48.81;97966.69;5052409;28;20177;-53
2022/09/13 07:21:48;;;;;;;2.13;1.50;;;;;;;21.67;49.07;97951.72;5051775;28;20173;-51
2022/09/13 07:24:15;;;;;;;2.15;1.50;;;;;;;21.65;49.43;97948.44;5051719;28;20185;-51
2022/09/13 07:26:40;;;;;;;1.75;1.65;;;;;;;21.73;48.90;97951.81;5051462;28;20181;-51
2022/09/13 07:29:10;;;;;;;1.65;1.55;;;;;;;21.86;48.68;97962.50;5051404;28;20201;-51
2022/09/13 07:31:38;;;;;;;2.40;1.60;;;;;;;21.93;48.31;97957.31;5051739;28;20169;-51
2022/09/13 07:34:06;;;;;;;2.10;1.77;;;;;;;21.97;47.76;97975.19;5053010;28;20184;-51
2022/09/13 07:36:34;;;;;;;1.75;1.65;;;;;;;22.05;47.93;97972.44;5055118;28;20169;-51
2022/09/13 07:39:00;;;;;;;1.98;1.63;;;;;;;22.02;47.36;97974.66;5055126;28;20173;-51
2022/09/13 07:41:27;;;;;;;1.90;1.80;;;;;;;21.94;48.13;97970.31;5055033;28;20674;-52
2022/09/13 07:43:54;;;;;;;3.83;1.60;;;;;;;22.01;46.88;97973.00;5055000;28;20185;-51
2022/09/13 07:46:21;;;;;;;1.95;1.60;;;;;;;22.04;48.17;97965.53;5055189;28;20609;-51
2022/09/13 07:48:47;;;;;;;1.52;1.52;;;;;;;22.12;47.29;97965.41;5055072;28;20577;-51
2022/09/13 07:51:15;;;;;;;2.03;1.58;;;;;;;22.12;47.87;97968.06;5054881;28;20177;-52
2022/09/13 07:53:42;;;;;;;1.88;1.40;;;;;;;22.19;48.54;97970.72;5054813;28;20177;-52
2022/09/13 07:56:13;;;;;;;1.80;1.70;;;;;;;22.29;47.30;97968.59;5054768;28;20177;-52
2022/09/13 07:58:40;;;;;;;1.95;1.60;;;;;;;22.35;47.36;97963.41;5054769;28;20183;-53
2022/09/13 08:01:15;;;;;;;1.80;1.70;;;;;;;22.45;47.77;97981.56;5054692;28;20181;-51
2022/09/13 08:03:41;;;;;;;1.80;1.70;;;;;;;22.54;48.15;97967.22;5054658;28;20183;-52
2022/09/13 08:06:07;;;;;;;1.77;1.67;;;;;;;22.58;47.51;97966.69;5054541;28;20193;-52
2022/09/13 08:08:35;;;;;;;2.30;1.98;;;;;;;22.52;48.22;97961.34;5055192;28;20204;-52
2022/09/13 08:11:03;;;;;;;1.70;1.60;;;;;;;22.51;47.09;97978.19;5054510;28;20186;-52
2022/09/13 08:13:28;;;;;;;1.90;1.73;;;;;;;22.45;47.44;97976.28;5054533;28;20635;-54
2022/09/13 08:15:55;;;;;;;2.45;2.17;;;;;;;22.45;46.81;97974.50;5054409;28;20169;-53
2022/09/13 08:18:21;;;;;;;4.80;1.73;;;;;;;22.46;46.90;97978.75;5054339;28;20185;-53
2022/09/13 08:20:46;;;;;;;1.77;1.67;;;;;;;22.53;47.70;97969.06;5054348;28;20173;-51
2022/09/13 08:23:13;;;;;;;2.42;1.50;;;;;;;22.59;45.54;97964.84;5054534;28;20181;-52
2022/09/13 08:25:39;;;;;;;1.70;1.60;;;;;;;22.66;45.91;97971.00;5054217;28;20306;-53
2022/09/13 08:28:06;;;;;;;2.83;1.77;;;;;;;22.74;46.65;97976.13;5054117;28;20208;-52
2022/09/13 08:30:34;;;;;;;1.77;1.67;;;;;;;22.78;46.13;97980.03;5054123;28;20654;-51
2022/09/13 08:33:01;;;;;;;1.65;1.55;;;;;;;22.73;45.69;97977.16;5054261;28;20177;-52
2022/09/13 08:35:27;;;;;;;1.67;1.60;;;;;;;22.59;46.53;97970.13;5054392;28;20303;-52
2022/09/13 08:37:53;;;;;;;1.80;1.70;;;;;;;22.67;47.18;97967.34;5054063;28;20226;-52
2022/09/13 08:40:20;;;;;;;1.73;1.63;;;;;;;22.52;47.91;97945.53;5054010;28;20184;-52
2022/09/13 08:42:52;;;;;;;1.95;1.85;;;;;;;22.85;47.73;97976.41;5053966;28;20235;-52
2022/09/13 08:45:17;;;;;;;4.65;1.83;;;;;;;22.92;47.40;97965.91;5052955;28;20272;-52
2022/09/13 08:47:49;;;;;;;1.90;1.80;;;;;;;22.96;46.98;97972.44;5053795;28;20257;-52
2022/09/13 08:50:30;;;;;;;2.13;1.92;;;;;;;22.94;47.28;97977.06;5053808;28;20639;-52
2022/09/13 08:53:01;;;;;;;2.35;1.92;;;;;;;22.92;46.78;97976.47;5053794;28;20549;-53
2022/09/13 08:55:49;;;;;;;3.83;2.25;;;;;;;22.92;46.96;97979.09;5053651;28;20635;-52
2022/09/13 08:58:36;;;;;;;1.80;1.70;;;;;;;22.91;46.54;97980.13;5053978;28;20157;-52
2022/09/13 09:01:29;;;;;;;1.80;1.65;;;;;;;22.83;46.64;97973.16;5053820;28;20179;-52
2022/09/13 09:04:27;;;;;;;1.92;1.70;;;;;;;23.01;47.08;97967.41;5052585;28;20193;-53
2022/09/13 09:07:14;;;;;;;4.22;2.17;;;;;;;23.14;45.85;97975.41;5052836;28;20291;-53
2022/09/13 09:09:54;;;;;;;1.80;1.70;;;;;;;23.21;44.83;97986.84;5053658;28;20693;-52
2022/09/13 09:12:46;;;;;;;6.72;1.60;;;;;;;23.14;44.99;97975.41;5053584;28;20204;-52
2022/09/13 09:15:16;;;;;;;2.30;1.60;;;;;;;23.07;45.05;97975.34;5053038;28;20186;-53
2022/09/13 09:18:01;;;;;;;2.38;2.15;;;;;;;22.98;45.68;97970.41;5053533;28;20547;-53
2022/09/13 09:20:26;;;;;;;2.60;1.60;;;;;;;22.95;45.26;97965.53;5053270;28;20622;-53
2022/09/13 09:22:53;;;;;;;3.55;1.80;;;;;;;22.50;46.34;97887.69;5053453;28;20203;-52
2022/09/13 09:25:22;;;;;;;1.50;1.40;;;;;;;23.06;45.89;97957.88;5053321;28;20204;-53
2022/09/13 09:27:49;;;;;;;1.55;1.45;;;;;;;23.18;44.13;97966.09;5053073;28;20622;-52
2022/09/13 09:30:15;;;;;;;1.95;1.73;;;;;;;23.16;43.70;97974.19;5053122;28;20665;-52
2022/09/13 09:33:12;;;;;;;1.70;1.60;;;;;;;23.22;43.13;97968.16;5052991;28;20170;-53
2022/09/13 09:36:00;;;;;;;1.73;1.63;;;;;;;23.21;44.02;97966.53;5052996;28;20161;-52
2022/09/13 09:38:40;;;;;;;1.58;1.48;;;;;;;23.32;44.00;97968.59;5053203;28;20513;-53
2022/09/13 09:41:16;;;;;;;1.67;1.58;;;;;;;23.24;43.85;97936.31;5053143;28;20189;-52
2022/09/13 09:43:54;;;;;;;1.60;1.50;;;;;;;23.48;42.47;97972.78;5052755;28;20161;-53
2022/09/13 09:46:24;;;;;;;1.50;1.40;;;;;;;23.52;42.63;97960.78;5052752;28;20181;-53
2022/09/13 09:50:07;;;;;;;3.03;1.60;;;;;;;23.55;42.14;97969.13;5053072;28;20584;-53
2022/09/13 09:51:53;;;;;;;1.60;1.50;;;;;;;23.61;41.86;97968.34;5052610;28;20173;-53
2022/09/13 09:54:19;;;;;;;2.70;1.65;;;;;;;23.57;41.51;97959.19;5052947;28;20177;-53
2022/09/13 09:56:53;;;;;;;1.63;1.52;;;;;;;23.80;41.23;97973.69;5052610;28;20239;-53
2022/09/13 09:59:37;;;;;;;2.50;1.50;;;;;;;23.97;40.64;97968.09;5052399;28;20665;-53
2022/09/13 10:02:18;;;;;;;2.50;1.52;;;;;;;24.13;40.23;97973.81;5052514;28;20536;-53
2022/09/13 10:04:54;;;;;;;1.40;1.33;;;;;;;24.11;40.55;97973.22;5052279;28;20188;-53
2022/09/13 10:07:34;;;;;;;3.92;2.70;;;;;;;23.95;39.98;97983.34;5052517;28;20288;-53
2022/09/13 10:10:17;;;;;;;2.60;2.40;;;;;;;23.80;39.67;97983.47;5052534;28;20196;-53
2022/09/13 10:12:42;;;;;;;1.40;1.33;;;;;;;23.75;39.63;97980.59;5052232;28;20645;-53
2022/09/13 10:15:19;;;;;;;1.17;1.17;;;;;;;23.67;39.07;97973.66;5052236;28;20260;-53
2022/09/13 10:18:15;;;;;;;1.75;1.30;;;;;;;23.62;39.76;97969.16;5052496;28;20169;-54
2022/09/13 10:20:41;;;;;;;1.98;1.30;;;;;;;23.62;40.52;97970.00;5051655;28;20185;-53
2022/09/13 10:23:12;;;;;;;1.50;1.38;;;;;;;23.62;40.31;97972.63;5052428;28;20654;-53
2022/09/13 10:25:39;;;;;;;1.45;1.33;;;;;;;23.54;39.75;97962.22;5052540;28;20173;-53
2022/09/13 10:28:12;;;;;;;1.50;1.40;;;;;;;23.41;39.92;97946.31;5052278;28;20204;-51
2022/09/13 10:30:41;;;;;;;1.08;1.08;;;;;;;23.43;39.79;97956.69;5052210;28;20628;-52
2022/09/13 10:33:24;;;;;;;1.20;1.10;;;;;;;23.40;40.82;97947.34;5052029;28;20173;-54
2022/09/13 10:35:54;;;;;;;2.67;1.23;;;;;;;23.38;40.45;97935.34;5052101;28;20158;-53
2022/09/13 10:38:45;;;;;;;1.58;1.40;;;;;;;23.47;41.28;97936.78;5052252;28;20175;-54
2022/09/13 10:41:21;;;;;;;2.15;1.17;;;;;;;23.62;40.58;97934.81;5051721;28;20189;-54
2022/09/13 10:43:55;;;;;;;1.20;1.20;;;;;;;23.50;39.79;97896.78;5052241;28;20153;-53
2022/09/13 10:46:22;;;;;;;1.20;1.10;;;;;;;23.78;40.25;97928.19;5051923;28;20219;-53
2022/09/13 10:48:57;;;;;;;1.38;1.27;;;;;;;23.80;41.23;97930.63;5052015;28;20287;-53
2022/09/13 10:51:26;;;;;;;1.33;1.23;;;;;;;23.86;39.27;97935.91;5052126;28;20153;-54
2022/09/13 10:54:16;;;;;;;0.90;0.90;;;;;;;23.88;38.66;97929.66;5052099;28;20563;-54
2022/09/13 10:56:42;;;;;;;1.77;1.40;;;;;;;24.00;38.70;97931.50;5051829;28;20204;-54
2022/09/13 10:59:14;;;;;;;1.58;1.48;;;;;;;24.04;39.28;97922.16;5051826;28;20219;-53
2022/09/13 11:01:51;;;;;;;2.15;1.58;;;;;;;24.17;39.33;97924.81;5051700;28;20181;-53
2022/09/13 11:04:43;;;;;;;2.65;1.10;;;;;;;24.31;39.18;97913.25;5051629;28;20175;-53
2022/09/13 11:07:15;;;;;;;2.65;1.10;;;;;;;24.48;38.18;97914.44;5051841;28;20205;-53
2022/09/13 11:10:34;;;;;;;1.23;1.17;;;;;;;24.78;38.30;97911.19;5054644;28;20209;-54
2022/09/13 11:13:24;;;;;;;1.92;1.33;;;;;;;25.17;37.16;97916.41;5053761;28;20254;-53
2022/09/13 11:16:22;;;;;;;1.40;1.30;;;;;;;25.53;34.81;97910.56;5055873;28;20165;-53
2022/09/13 11:19:06;;;;;;;2.05;1.23;;;;;;;25.84;36.34;97898.19;5055702;28;20173;-53
2022/09/13 11:21:37;;;;;;;1.42;1.10;;;;;;;25.95;35.27;97910.00;5055511;28;20168;-53
2022/09/13 11:24:21;;;;;;;1.00;1.00;;;;;;;25.89;33.81;97911.63;5055446;28;20168;-53
2022/09/13 11:26:46;;;;;;;1.20;1.10;;;;;;;25.70;34.31;97906.41;5055686;28;20161;-53
2022/09/13 11:29:36;;;;;;;1.00;1.00;;;;;;;25.60;35.08;97898.94;5055267;28;20242;-54
2022/09/13 11:32:38;;;;;;;1.10;1.00;;;;;;;25.64;34.73;97897.50;5055630;28;20168;-54
2022/09/13 11:35:17;;;;;;;1.00;1.00;;;;;;;25.66;34.62;97892.00;5055399;28;20165;-54
2022/09/13 11:37:51;;;;;;;1.20;1.10;;;;;;;25.78;34.74;97895.59;5055179;28;20172;-53
2022/09/13 11:40:31;;;;;;;0.93;0.93;;;;;;;25.98;33.59;97894.47;5055346;28;20171;-54
2022/09/13 11:43:05;;;;;;;1.10;1.10;;;;;;;26.02;33.75;97903.59;5055314;28;20170;-53
2022/09/13 11:45:56;;;;;;;1.67;0.93;;;;;;;26.31;32.34;97905.63;5055181;28;20161;-54
2022/09/13 11:48:39;;;;;;;1.58;0.90;;;;;;;26.31;32.34;97900.31;5054805;28;20212;-53
2022/09/13 11:51:33;;;;;;;1.83;1.20;;;;;;;26.45;32.28;97896.56;5055257;28;20211;-54
2022/09/13 11:54:24;;;;;;;2.28;0.90;;;;;;;26.50;33.13;97894.06;5055171;28;20158;-54
2022/09/13 11:57:01;;;;;;;1.20;1.10;;;;;;;26.39;31.85;97884.16;5055108;28;20543;-52
2022/09/13 11:59:40;;;;;;;0.98;0.88;;;;;;;26.54;32.46;97882.00;5054775;28;20554;-52